Time;durP1;ratioP1;P1;durP2;ratioP2;P2;SDS_P1;SDS_P2;PMS_P1;PMS_P2;Temp;Humidity;BMP_temperature;BMP_pressure;BME280_temperature;BME280_humidity;BME280_pressure;Samples;Min_cycle;Max_cycle;Signal;HPM_P1;HPM_P2
2020/12/20 00:01:47;;;;;;;4.80;3.67;;;15.30;99.90;;;;;;5074445;28;20649;-81
2020/12/20 00:04:13;;;;;;;4.27;2.80;;;15.30;99.90;;;;;;5074350;28;20441;-81
2020/12/20 00:06:41;;;;;;;3.07;2.77;;;15.20;99.90;;;;;;5074016;28;20827;-81
2020/12/20 00:09:09;;;;;;;3.23;2.70;;;15.30;99.90;;;;;;5074011;28;20492;-82
2020/12/20 00:11:40;;;;;;;3.13;2.83;;;15.30;99.90;;;;;;5074000;28;20441;-81
2020/12/20 00:14:26;;;;;;;3.63;3.22;;;15.20;99.90;;;;;;5074005;28;20244;-81
2020/12/20 00:16:54;;;;;;;3.45;3.00;;;15.30;99.90;;;;;;5074218;28;20209;-81
2020/12/20 00:19:21;;;;;;;3.37;3.00;;;15.30;99.90;;;;;;5073869;28;20201;-81
2020/12/20 00:21:47;;;;;;;4.03;3.67;;;15.20;99.90;;;;;;5073797;28;20437;-81
2020/12/20 00:24:13;;;;;;;4.83;3.30;;;15.20;99.90;;;;;;5073899;28;20444;-81
2020/12/20 00:26:43;;;;;;;3.00;2.70;;;15.10;99.90;;;;;;5073706;28;20441;-81
2020/12/20 00:29:09;;;;;;;4.05;3.55;;;15.10;99.90;;;;;;5073765;28;20472;-81
2020/12/20 00:31:35;;;;;;;4.00;2.97;;;15.10;99.90;;;;;;5073811;28;20256;-81
2020/12/20 00:34:05;;;;;;;3.55;2.95;;;15.10;99.90;;;;;;5073685;28;20520;-81
2020/12/20 00:36:32;;;;;;;4.68;3.03;;;15.10;99.90;;;;;;5073754;28;20195;-81
2020/12/20 00:38:58;;;;;;;3.20;2.93;;;15.20;99.90;;;;;;5073387;28;20222;-81
2020/12/20 00:41:24;;;;;;;3.13;2.87;;;15.10;99.90;;;;;;5073558;28;20448;-81
2020/12/20 00:43:50;;;;;;;5.17;3.30;;;15.10;99.90;;;;;;5073572;28;20440;-81
2020/12/20 00:46:17;;;;;;;6.30;3.20;;;15.20;99.90;;;;;;5073667;28;20496;-81
2020/12/20 00:48:43;;;;;;;3.03;2.53;;;15.30;99.90;;;;;;5073329;28;20225;-81
2020/12/20 00:51:10;;;;;;;6.60;3.07;;;15.30;99.90;;;;;;5073472;28;20445;-81
2020/12/20 00:53:37;;;;;;;3.85;2.88;;;15.30;99.90;;;;;;5073049;28;20448;-82
2020/12/20 00:56:05;;;;;;;5.23;3.23;;;15.30;99.90;;;;;;5073219;28;20261;-81
2020/12/20 00:58:32;;;;;;;3.87;3.27;;;15.20;99.90;;;;;;5073379;28;20813;-81
2020/12/20 01:00:58;;;;;;;7.90;3.00;;;15.10;99.90;;;;;;5073556;28;20436;-81
2020/12/20 01:03:24;;;;;;;3.10;2.90;;;15.20;99.90;;;;;;5072909;28;20510;-81
2020/12/20 01:05:51;;;;;;;3.47;2.80;;;15.20;99.90;;;;;;5073261;28;20800;-81
2020/12/20 01:08:18;;;;;;;3.20;2.83;;;15.10;99.90;;;;;;5073161;28;20448;-81
2020/12/20 01:10:44;;;;;;;2.97;2.70;;;15.10;99.90;;;;;;5073364;28;20440;-81
2020/12/20 01:13:10;;;;;;;3.00;2.80;;;15.10;99.90;;;;;;5073397;28;20456;-81
2020/12/20 01:15:37;;;;;;;2.80;2.60;;;15.20;99.90;;;;;;5073370;28;20534;-81
2020/12/20 01:18:03;;;;;;;5.93;3.00;;;15.10;99.90;;;;;;5072474;28;20494;-81
2020/12/20 01:20:29;;;;;;;3.50;3.20;;;15.20;99.90;;;;;;5073102;28;20436;-81
2020/12/20 01:22:55;;;;;;;3.78;2.95;;;15.20;99.90;;;;;;5073201;28;20198;-81
2020/12/20 01:25:22;;;;;;;2.97;2.78;;;15.20;99.90;;;;;;5073141;28;20214;-81
2020/12/20 01:27:48;;;;;;;3.17;2.58;;;15.10;99.90;;;;;;5073011;28;20268;-81
2020/12/20 01:30:15;;;;;;;2.63;2.43;;;15.20;99.90;;;;;;5072808;28;20225;-81
2020/12/20 01:32:41;;;;;;;4.65;3.92;;;15.20;99.90;;;;;;5073097;28;20494;-82
2020/12/20 01:35:09;;;;;;;4.30;3.38;;;15.00;99.90;;;;;;5072995;28;20263;-81
2020/12/20 01:37:36;;;;;;;5.40;3.37;;;15.10;99.90;;;;;;5072883;28;20194;-81
2020/12/20 01:40:03;;;;;;;2.90;2.70;;;15.00;99.90;;;;;;5072703;28;20465;-81
2020/12/20 01:42:30;;;;;;;5.70;3.40;;;15.00;99.90;;;;;;5072894;28;20437;-81
2020/12/20 01:44:56;;;;;;;2.58;2.38;;;15.00;99.90;;;;;;5073008;28;20444;-81
2020/12/20 01:47:23;;;;;;;4.70;3.58;;;14.90;99.90;;;;;;5072828;28;20191;-81
2020/12/20 01:49:49;;;;;;;2.23;2.03;;;14.80;99.90;;;;;;5073038;28;20218;-81
2020/12/20 01:52:16;;;;;;;3.17;2.90;;;14.90;99.90;;;;;;5072731;28;20444;-81
2020/12/20 01:54:45;;;;;;;3.95;2.55;;;14.90;99.90;;;;;;5072857;28;20201;-81
2020/12/20 01:57:11;;;;;;;3.17;2.87;;;14.90;99.90;;;;;;5072564;28;20253;-81
2020/12/20 01:59:38;;;;;;;4.07;3.37;;;14.90;99.90;;;;;;5072900;28;20931;-81
2020/12/20 02:02:04;;;;;;;3.40;3.08;;;15.00;99.90;;;;;;5072941;28;20931;-81
2020/12/20 02:04:31;;;;;;;4.57;3.25;;;15.00;99.90;;;;;;5072221;28;20195;-81
2020/12/20 02:06:57;;;;;;;3.53;2.87;;;14.90;99.90;;;;;;5072667;28;20195;-81
2020/12/20 02:09:23;;;;;;;5.77;3.43;;;14.90;99.90;;;;;;5072560;28;20491;-81
2020/12/20 02:11:49;;;;;;;3.20;2.77;;;14.90;99.90;;;;;;5072693;28;20498;-81
2020/12/20 02:14:16;;;;;;;2.78;2.55;;;14.90;99.90;;;;;;5072725;28;20453;-81
2020/12/20 02:16:43;;;;;;;3.78;3.47;;;14.90;99.90;;;;;;5072541;28;20226;-81
2020/12/20 02:19:09;;;;;;;3.47;3.10;;;14.90;99.90;;;;;;5072789;28;20205;-81
2020/12/20 02:21:36;;;;;;;4.03;3.00;;;14.80;99.90;;;;;;5072693;28;20778;-81
2020/12/20 02:24:02;;;;;;;3.50;2.90;;;14.90;99.90;;;;;;5072628;28;20436;-81
2020/12/20 02:26:30;;;;;;;3.17;2.90;;;14.90;99.90;;;;;;5072459;28;20569;-81
2020/12/20 02:28:57;;;;;;;4.03;3.13;;;14.90;99.90;;;;;;5072585;28;20316;-81
2020/12/20 02:31:24;;;;;;;3.93;2.70;;;14.90;99.90;;;;;;5074864;28;20195;-81
2020/12/20 02:33:50;;;;;;;2.75;2.55;;;14.90;99.90;;;;;;5076023;28;20436;-81
2020/12/20 02:36:17;;;;;;;2.50;2.30;;;14.90;99.90;;;;;;5075930;28;20316;-81
2020/12/20 02:38:44;;;;;;;2.77;2.57;;;14.90;99.90;;;;;;5075663;28;20720;-81
2020/12/20 02:41:10;;;;;;;3.25;2.95;;;15.00;99.90;;;;;;5075745;28;20447;-81
2020/12/20 02:43:36;;;;;;;3.80;2.88;;;14.90;99.90;;;;;;5075946;28;20197;-81
2020/12/20 02:46:03;;;;;;;3.92;2.92;;;14.80;99.90;;;;;;5075825;28;20252;-81
2020/12/20 02:48:29;;;;;;;6.50;3.50;;;14.90;99.90;;;;;;5075731;28;20205;-81
2020/12/20 02:50:55;;;;;;;2.90;2.70;;;14.90;99.90;;;;;;5075840;28;20198;-81
2020/12/20 02:53:22;;;;;;;5.60;3.42;;;14.90;99.90;;;;;;5075817;28;20556;-81
2020/12/20 02:55:49;;;;;;;3.50;3.20;;;14.90;99.90;;;;;;5075571;28;20209;-81
2020/12/20 02:58:15;;;;;;;6.93;2.63;;;14.90;99.90;;;;;;5075524;28;20221;-81
2020/12/20 03:00:42;;;;;;;3.37;2.77;;;14.90;99.90;;;;;;5075438;28;20803;-81
2020/12/20 03:03:08;;;;;;;4.85;3.05;;;14.80;99.90;;;;;;5075617;28;21002;-81
2020/12/20 03:05:35;;;;;;;3.70;2.95;;;14.80;99.90;;;;;;5075558;28;20202;-81
2020/12/20 03:08:01;;;;;;;4.47;2.70;;;14.90;99.90;;;;;;5075376;28;20224;-81
2020/12/20 03:10:27;;;;;;;2.93;2.50;;;14.90;99.90;;;;;;5075121;28;20489;-82
2020/12/20 03:12:54;;;;;;;3.90;3.47;;;14.90;99.90;;;;;;5075327;28;20437;-81
2020/12/20 03:15:21;;;;;;;3.00;2.80;;;14.90;99.90;;;;;;5075466;28;20194;-81
2020/12/20 03:17:47;;;;;;;2.80;2.60;;;15.00;99.90;;;;;;5075073;28;20194;-81
2020/12/20 03:20:13;;;;;;;3.23;2.93;;;14.90;99.90;;;;;;5075191;28;20662;-81
2020/12/20 03:22:39;;;;;;;2.83;2.58;;;15.00;99.90;;;;;;5075153;28;20565;-81
2020/12/20 03:25:06;;;;;;;3.40;3.10;;;14.90;99.90;;;;;;5075010;28;20198;-81
2020/12/20 03:27:32;;;;;;;6.50;3.10;;;14.90;99.90;;;;;;5075002;28;20699;-81
2020/12/20 03:29:59;;;;;;;4.72;2.80;;;14.90;99.90;;;;;;5074901;28;20541;-81
2020/12/20 03:32:26;;;;;;;2.72;2.53;;;14.90;99.90;;;;;;5074888;28;20198;-81
2020/12/20 03:34:52;;;;;;;6.18;2.75;;;14.80;99.90;;;;;;5074979;28;20275;-81
2020/12/20 03:37:19;;;;;;;3.00;2.80;;;14.80;99.90;;;;;;5074639;28;20194;-81
2020/12/20 03:39:46;;;;;;;4.82;3.22;;;14.80;99.90;;;;;;5074634;28;20221;-81
2020/12/20 03:42:12;;;;;;;4.28;2.75;;;14.90;99.90;;;;;;5074027;28;20676;-81
2020/12/20 03:44:38;;;;;;;5.90;3.83;;;14.90;99.90;;;;;;5074754;28;20198;-81
2020/12/20 03:47:05;;;;;;;4.40;2.87;;;14.80;99.90;;;;;;5074659;28;20236;-82
2020/12/20 03:49:32;;;;;;;3.25;2.85;;;14.90;99.90;;;;;;5074409;28;20488;-81
2020/12/20 03:51:58;;;;;;;4.03;3.63;;;14.90;99.90;;;;;;5074562;28;20664;-81
2020/12/20 03:54:25;;;;;;;4.53;2.90;;;14.90;99.90;;;;;;5074461;28;20437;-81
2020/12/20 03:56:54;;;;;;;4.63;3.38;;;14.90;99.90;;;;;;5074048;28;20249;-81
2020/12/20 03:59:20;;;;;;;3.40;3.10;;;14.80;99.90;;;;;;5074453;28;20221;-81
2020/12/20 04:01:46;;;;;;;4.28;3.10;;;14.80;99.90;;;;;;5074503;28;20205;-81
2020/12/20 04:04:13;;;;;;;6.38;3.97;;;14.80;99.90;;;;;;5074471;28;20194;-81
2020/12/20 04:06:39;;;;;;;6.03;3.90;;;14.80;99.90;;;;;;5074306;28;20272;-81
2020/12/20 04:09:06;;;;;;;4.72;3.03;;;14.80;99.90;;;;;;5073982;28;20229;-81
2020/12/20 04:11:32;;;;;;;3.63;2.97;;;14.70;99.90;;;;;;5074035;28;20197;-81
2020/12/20 04:13:58;;;;;;;3.00;2.70;;;14.70;99.90;;;;;;5074219;28;20610;-81
2020/12/20 04:16:24;;;;;;;3.78;3.35;;;14.70;99.90;;;;;;5074099;28;20198;-81
2020/12/20 04:18:50;;;;;;;7.18;3.70;;;14.60;99.90;;;;;;5073995;28;20198;-81
2020/12/20 04:21:17;;;;;;;3.70;3.40;;;14.70;99.90;;;;;;5074061;28;20237;-81
2020/12/20 04:23:44;;;;;;;5.25;3.30;;;14.50;99.90;;;;;;5073857;28;20210;-81
2020/12/20 04:26:10;;;;;;;3.30;3.00;;;14.50;99.90;;;;;;5073889;28;20661;-81
2020/12/20 04:28:36;;;;;;;6.43;4.15;;;14.60;99.90;;;;;;5073741;28;20198;-81
2020/12/20 04:31:02;;;;;;;4.80;3.13;;;14.60;99.90;;;;;;5073735;28;20222;-81
2020/12/20 04:33:28;;;;;;;4.43;3.47;;;14.50;99.90;;;;;;5073820;28;20194;-82
2020/12/20 04:35:55;;;;;;;4.47;3.17;;;14.50;99.90;;;;;;5073599;28;20546;-81
2020/12/20 04:38:22;;;;;;;3.45;3.15;;;14.50;99.90;;;;;;5073602;28;20244;-82
2020/12/20 04:40:49;;;;;;;5.03;3.20;;;14.50;99.90;;;;;;5073692;28;20714;-81
2020/12/20 04:43:15;;;;;;;4.43;3.35;;;14.60;99.90;;;;;;5073541;28;20444;-81
2020/12/20 04:45:43;;;;;;;3.85;3.55;;;14.60;99.90;;;;;;5073783;28;20205;-81
2020/12/20 04:48:12;;;;;;;5.10;3.33;;;14.60;99.90;;;;;;5073755;28;20550;-81
2020/12/20 04:50:41;;;;;;;4.18;3.30;;;14.50;99.90;;;;;;5073428;28;20665;-81
2020/12/20 04:53:08;;;;;;;3.85;3.40;;;14.50;99.90;;;;;;5072905;28;20244;-82
2020/12/20 04:55:38;;;;;;;4.40;4.00;;;14.50;99.90;;;;;;5073537;28;20202;-81
2020/12/20 04:58:05;;;;;;;3.13;2.88;;;14.50;99.90;;;;;;5073390;28;20194;-81
2020/12/20 05:00:32;;;;;;;6.60;2.95;;;14.40;99.90;;;;;;5073516;28;20209;-81
2020/12/20 05:02:58;;;;;;;3.92;3.55;;;14.40;99.90;;;;;;5073456;28;20251;-81
2020/12/20 05:05:24;;;;;;;4.32;3.00;;;14.50;99.90;;;;;;5073355;28;20217;-81
2020/12/20 05:07:52;;;;;;;4.28;3.47;;;14.50;99.90;;;;;;5073337;28;20195;-81
2020/12/20 05:10:18;;;;;;;4.20;3.30;;;14.60;99.90;;;;;;5073144;28;20237;-81
2020/12/20 05:12:45;;;;;;;3.20;2.83;;;14.60;99.90;;;;;;5073393;28;20194;-81
2020/12/20 05:15:19;;;;;;;4.82;2.88;;;14.60;99.90;;;;;;5073272;28;20239;-81
2020/12/20 05:17:46;;;;;;;6.85;3.83;;;14.60;99.90;;;;;;5073086;28;20205;-81
2020/12/20 05:20:24;;;;;;;3.45;2.85;;;14.60;99.90;;;;;;5073383;28;20206;-81
2020/12/20 05:22:53;;;;;;;2.80;2.60;;;14.60;99.90;;;;;;5073083;28;20205;-81
2020/12/20 05:25:21;;;;;;;3.83;3.10;;;14.70;99.90;;;;;;5073074;28;20194;-81
2020/12/20 05:27:48;;;;;;;4.05;3.13;;;14.70;99.90;;;;;;5073028;28;20198;-81
2020/12/20 05:30:16;;;;;;;4.70;3.70;;;14.70;99.90;;;;;;5073197;28;20226;-81
2020/12/20 05:32:44;;;;;;;3.25;2.90;;;14.70;99.90;;;;;;5073177;28;20802;-81
2020/12/20 05:35:13;;;;;;;4.53;3.92;;;14.70;99.90;;;;;;5073223;28;20509;-81
2020/12/20 05:37:40;;;;;;;3.75;3.30;;;14.60;99.90;;;;;;5072917;28;20194;-81
2020/12/20 05:40:08;;;;;;;4.28;3.58;;;14.50;99.90;;;;;;5072923;28;20222;-81
2020/12/20 05:42:36;;;;;;;3.88;3.42;;;14.50;99.90;;;;;;5072986;28;20201;-81
2020/12/20 05:45:11;;;;;;;3.85;3.55;;;14.50;99.90;;;;;;5072900;28;20251;-81
2020/12/20 05:47:39;;;;;;;3.25;3.00;;;14.40;99.90;;;;;;5072857;28;20194;-81
2020/12/20 05:50:06;;;;;;;4.82;3.80;;;14.50;99.90;;;;;;5072811;28;20226;-81
2020/12/20 05:52:33;;;;;;;5.03;3.63;;;14.60;99.90;;;;;;5073048;28;20194;-81
2020/12/20 05:54:59;;;;;;;3.85;3.55;;;14.50;99.90;;;;;;5072337;28;20198;-81
2020/12/20 05:57:25;;;;;;;4.93;3.63;;;14.50;99.90;;;;;;5072460;28;20222;-81
2020/12/20 05:59:52;;;;;;;3.72;3.45;;;14.50;99.90;;;;;;5072828;28;20195;-81
2020/12/20 06:02:20;;;;;;;4.07;3.67;;;14.50;99.90;;;;;;5072633;28;20206;-81
2020/12/20 06:04:47;;;;;;;5.72;3.40;;;14.40;99.90;;;;;;5074345;28;20198;-81
2020/12/20 06:07:15;;;;;;;4.75;3.40;;;14.40;99.90;;;;;;5076658;28;20194;-81
2020/12/20 06:09:54;;;;;;;4.85;3.83;;;14.40;99.90;;;;;;5076475;28;20242;-81
2020/12/20 06:12:21;;;;;;;4.78;3.55;;;14.40;99.90;;;;;;5076541;28;20554;-81
2020/12/20 06:14:48;;;;;;;3.55;3.28;;;14.40;99.90;;;;;;5076348;28;20194;-81
2020/12/20 06:17:17;;;;;;;3.45;3.15;;;14.40;99.90;;;;;;5076376;28;20201;-81
2020/12/20 06:20:04;;;;;;;4.43;4.03;;;14.40;99.90;;;;;;5076249;28;20221;-81
2020/12/20 06:22:31;;;;;;;3.47;3.05;;;14.30;99.90;;;;;;5076321;28;20194;-81
2020/12/20 06:24:59;;;;;;;4.72;2.85;;;14.30;99.90;;;;;;5076129;28;20190;-81
2020/12/20 06:27:27;;;;;;;4.30;3.90;;;14.30;99.90;;;;;;5076144;28;20250;-81
2020/12/20 06:29:55;;;;;;;7.25;3.95;;;14.30;99.90;;;;;;5075932;28;20229;-81
2020/12/20 06:32:26;;;;;;;4.50;3.35;;;14.30;99.90;;;;;;5075998;28;20278;-81
2020/12/20 06:34:53;;;;;;;4.35;3.15;;;14.30;99.90;;;;;;5076064;28;20646;-81
2020/12/20 06:37:22;;;;;;;3.75;3.45;;;14.40;99.90;;;;;;5076011;28;20201;-81
2020/12/20 06:39:49;;;;;;;4.75;3.47;;;14.50;99.90;;;;;;5075753;28;20270;-81
2020/12/20 06:42:15;;;;;;;4.28;3.88;;;14.40;99.90;;;;;;5075971;28;20231;-82
2020/12/20 06:44:41;;;;;;;4.25;3.60;;;14.50;99.90;;;;;;5075848;28;20668;-81
2020/12/20 06:47:07;;;;;;;5.53;4.25;;;14.50;99.90;;;;;;5075319;28;20197;-81
2020/12/20 06:49:37;;;;;;;3.70;3.40;;;14.50;99.90;;;;;;5075539;28;20229;-81
2020/12/20 06:52:19;;;;;;;4.40;3.55;;;14.50;99.90;;;;;;5075994;28;20198;-81
2020/12/20 06:55:02;;;;;;;4.05;3.65;;;14.50;99.90;;;;;;5075812;28;20645;-81
2020/12/20 06:57:29;;;;;;;4.13;3.70;;;14.50;99.90;;;;;;5075348;28;20245;-81
2020/12/20 06:59:55;;;;;;;4.43;3.95;;;14.50;99.90;;;;;;5075541;28;20194;-81
2020/12/20 07:02:44;;;;;;;3.97;3.67;;;14.50;99.90;;;;;;5075305;28;20190;-81
2020/12/20 07:05:36;;;;;;;4.10;3.80;;;14.50;99.90;;;;;;5075310;28;20229;-81
2020/12/20 07:08:14;;;;;;;5.22;3.60;;;14.50;99.90;;;;;;5075316;28;20194;-81
2020/12/20 07:10:46;;;;;;;4.25;3.85;;;14.50;99.90;;;;;;5075341;28;20282;-81
2020/12/20 07:13:14;;;;;;;4.47;3.80;;;14.50;99.90;;;;;;5075712;28;20252;-81
2020/12/20 07:15:48;;;;;;;5.00;4.50;;;14.50;99.90;;;;;;5074557;28;20199;-81
2020/12/20 07:18:39;;;;;;;8.05;4.10;;;14.60;99.90;;;;;;5075067;28;20201;-81
2020/12/20 07:21:06;;;;;;;9.85;4.18;;;14.60;99.90;;;;;;5065181;28;20206;-81
2020/12/20 07:23:32;;;;;;;5.07;4.53;;;14.50;99.90;;;;;;5075148;28;20198;-81
2020/12/20 07:26:00;;;;;;;4.20;3.80;;;14.50;99.90;;;;;;5075025;28;20248;-81
2020/12/20 07:28:26;;;;;;;4.22;3.70;;;14.50;99.90;;;;;;5075064;28;20609;-82
2020/12/20 07:30:52;;;;;;;11.15;4.53;;;14.50;99.90;;;;;;5074882;28;20229;-81
2020/12/20 07:33:19;;;;;;;6.72;4.60;;;14.60;99.90;;;;;;5075127;28;20547;-81
2020/12/20 07:35:45;;;;;;;5.82;4.97;;;14.60;99.90;;;;;;5074816;28;20561;-81
2020/12/20 07:38:12;;;;;;;5.07;4.68;;;14.50;99.90;;;;;;5074660;28;20225;-81
2020/12/20 07:40:38;;;;;;;6.25;4.88;;;14.60;99.90;;;;;;5074759;28;20194;-81
2020/12/20 07:43:05;;;;;;;7.70;5.40;;;14.50;99.90;;;;;;5074798;28;20239;-81
2020/12/20 07:45:32;;;;;;;10.07;4.60;;;14.50;99.90;;;;;;5074842;28;20256;-81
2020/12/20 07:47:59;;;;;;;5.38;4.40;;;14.50;99.90;;;;;;5074620;28;20194;-81
2020/12/20 07:50:25;;;;;;;5.53;5.05;;;14.50;99.90;;;;;;5074677;28;20719;-81
2020/12/20 07:52:52;;;;;;;7.05;5.32;;;14.50;99.90;;;;;;5074716;28;20205;-81
2020/12/20 07:55:18;;;;;;;5.30;4.68;;;14.50;99.90;;;;;;5074629;28;20634;-81
2020/12/20 07:57:46;;;;;;;6.03;5.43;;;14.50;99.90;;;;;;5074141;28;20284;-81
2020/12/20 08:00:14;;;;;;;4.93;4.53;;;14.50;99.90;;;;;;5074443;28;20552;-81
2020/12/20 08:02:40;;;;;;;5.57;5.05;;;14.50;99.90;;;;;;5074333;28;20243;-81
2020/12/20 08:05:07;;;;;;;7.30;5.97;;;14.50;99.90;;;;;;5074263;28;20190;-81
2020/12/20 08:07:34;;;;;;;5.20;4.80;;;14.50;99.90;;;;;;5074338;28;20195;-81
2020/12/20 08:10:00;;;;;;;4.70;4.30;;;14.50;99.90;;;;;;5074035;28;20226;-82
2020/12/20 08:12:26;;;;;;;5.85;4.80;;;14.50;99.90;;;;;;5074131;28;20213;-82
2020/12/20 08:15:04;;;;;;;5.45;4.95;;;14.50;99.90;;;;;;5074381;28;20208;-81
2020/12/20 08:17:31;;;;;;;8.63;5.53;;;14.50;99.90;;;;;;5074008;28;20645;-81
2020/12/20 08:20:01;;;;;;;5.60;5.10;;;14.50;99.90;;;;;;5074189;28;20198;-81
2020/12/20 08:22:31;;;;;;;5.53;4.93;;;14.50;99.90;;;;;;5073965;28;20194;-81
2020/12/20 08:24:59;;;;;;;7.22;5.00;;;14.50;99.90;;;;;;5074000;28;20251;-81
2020/12/20 08:27:27;;;;;;;7.40;5.05;;;14.50;99.90;;;;;;5073718;28;20191;-81
2020/12/20 08:29:55;;;;;;;7.13;4.70;;;14.50;99.90;;;;;;5073558;28;20233;-82
2020/12/20 08:32:23;;;;;;;7.40;5.53;;;14.60;99.90;;;;;;5073829;28;20205;-81
2020/12/20 08:34:51;;;;;;;6.07;5.35;;;14.50;99.90;;;;;;5073662;28;20198;-82
2020/12/20 08:37:19;;;;;;;6.35;5.20;;;14.50;99.90;;;;;;5073643;28;20248;-81
2020/12/20 08:39:45;;;;;;;6.35;5.68;;;14.50;99.90;;;;;;5073551;28;20222;-81
2020/12/20 08:42:13;;;;;;;6.00;5.25;;;14.50;99.90;;;;;;5073518;28;20195;-81
2020/12/20 08:44:40;;;;;;;7.50;5.43;;;14.40;99.90;;;;;;5073486;28;20199;-83
2020/12/20 08:47:10;;;;;;;6.28;5.68;;;14.40;99.90;;;;;;5073559;28;20217;-81
2020/12/20 08:49:36;;;;;;;5.65;5.07;;;14.40;99.90;;;;;;5073654;28;20229;-81
2020/12/20 08:52:14;;;;;;;5.95;5.43;;;14.40;99.90;;;;;;5073582;28;20589;-81
2020/12/20 08:54:47;;;;;;;9.30;4.70;;;14.40;99.90;;;;;;5073516;28;20202;-81
2020/12/20 08:57:13;;;;;;;7.22;4.97;;;14.30;99.90;;;;;;5072774;28;20279;-81
2020/12/20 08:59:41;;;;;;;5.22;4.82;;;14.30;99.90;;;;;;5073370;28;20641;-81
2020/12/20 09:02:09;;;;;;;6.32;4.70;;;14.30;99.90;;;;;;5073338;28;20661;-81
2020/12/20 09:04:37;;;;;;;5.35;4.50;;;14.30;99.90;;;;;;5073472;28;20194;-81
2020/12/20 09:07:10;;;;;;;6.13;4.40;;;14.30;99.90;;;;;;5073293;28;20194;-81
2020/12/20 09:09:38;;;;;;;5.30;4.78;;;14.30;99.90;;;;;;5073243;28;20228;-81
2020/12/20 09:12:13;;;;;;;6.55;5.55;;;14.30;99.90;;;;;;5073250;28;20206;-81
2020/12/20 09:14:39;;;;;;;4.50;4.10;;;14.30;99.90;;;;;;5073219;28;20194;-81
2020/12/20 09:17:05;;;;;;;9.35;5.38;;;14.20;99.90;;;;;;5073012;28;20220;-81
2020/12/20 09:19:31;;;;;;;6.18;5.13;;;14.30;99.90;;;;;;5074687;28;20218;-83
2020/12/20 09:21:58;;;;;;;6.05;5.32;;;14.30;99.90;;;;;;5079570;28;20208;-85
2020/12/20 09:24:25;;;;;;;7.65;5.97;;;14.30;99.90;;;;;;5089066;28;20198;-84
2020/12/20 09:26:57;;;;;;;7.20;5.30;;;14.40;99.90;;;;;;5078947;28;20198;-85
2020/12/20 09:29:23;;;;;;;5.10;4.60;;;14.40;99.90;;;;;;5082403;28;20189;-84
2020/12/20 09:31:51;;;;;;;6.35;4.72;;;14.40;99.90;;;;;;5086439;28;20197;-84
2020/12/20 09:34:17;;;;;;;5.57;4.70;;;14.40;99.90;;;;;;5092790;28;20582;-83
2020/12/20 09:36:43;;;;;;;4.90;4.22;;;14.40;99.90;;;;;;5092782;28;20266;-84
2020/12/20 09:39:12;;;;;;;6.05;3.45;;;14.50;99.90;;;;;;5093648;28;20213;-85
2020/12/20 09:41:38;;;;;;;5.63;4.53;;;14.50;99.90;;;;;;5097264;28;20189;-84
2020/12/20 09:44:05;;;;;;;4.78;4.35;;;14.50;99.90;;;;;;5096796;28;20197;-85
2020/12/20 09:46:34;;;;;;;4.30;3.90;;;14.50;99.90;;;;;;5097195;28;20197;-83
2020/12/20 09:49:01;;;;;;;4.47;3.78;;;14.50;99.90;;;;;;5096577;28;20247;-81
2020/12/20 09:51:27;;;;;;;4.53;4.13;;;14.60;99.90;;;;;;5084096;28;20222;-86
2020/12/20 09:53:54;;;;;;;4.90;3.97;;;14.60;99.90;;;;;;5090942;28;20190;-81
2020/12/20 09:56:20;;;;;;;4.05;3.65;;;14.60;99.90;;;;;;5096313;28;20233;-82
2020/12/20 09:58:47;;;;;;;5.45;3.33;;;14.50;99.90;;;;;;5089781;28;20209;-84
2020/12/20 10:01:18;;;;;;;3.95;3.53;;;14.50;99.90;;;;;;5096595;28;20339;-84
2020/12/20 10:03:44;;;;;;;3.10;2.80;;;14.60;99.90;;;;;;5095310;28;20637;-83
2020/12/20 10:06:11;;;;;;;4.00;3.60;;;14.60;99.90;;;;;;5096457;28;20464;-82
2020/12/20 10:08:37;;;;;;;5.22;3.55;;;14.70;99.90;;;;;;5081455;28;20217;-82
2020/12/20 10:11:04;;;;;;;5.30;4.55;;;14.60;99.90;;;;;;5095729;28;20248;-83
2020/12/20 10:13:30;;;;;;;9.73;3.80;;;14.80;99.90;;;;;;5079948;28;20242;-82
2020/12/20 10:15:56;;;;;;;5.22;4.47;;;14.70;99.90;;;;;;5076896;28;20187;-82
2020/12/20 10:18:23;;;;;;;5.13;4.30;;;14.80;99.90;;;;;;5083520;28;20203;-87
2020/12/20 10:20:50;;;;;;;5.55;3.33;;;14.80;99.90;;;;;;5089548;28;20198;-84
2020/12/20 10:23:16;;;;;;;9.25;3.63;;;14.80;99.90;;;;;;5079111;28;20198;-84
2020/12/20 10:25:42;;;;;;;4.85;3.17;;;14.90;99.90;;;;;;5076095;28;20202;-84
2020/12/20 10:28:09;;;;;;;4.18;3.40;;;14.90;99.90;;;;;;5091834;28;20212;-83
2020/12/20 10:30:36;;;;;;;4.20;3.30;;;15.00;99.90;;;;;;5096097;28;20240;-84
2020/12/20 10:33:02;;;;;;;6.53;3.50;;;14.90;99.90;;;;;;5094909;28;20193;-83
2020/12/20 10:35:29;;;;;;;7.05;3.88;;;14.80;99.90;;;;;;5096120;28;20536;-83
2020/12/20 10:37:56;;;;;;;3.50;3.15;;;14.90;99.90;;;;;;5095735;28;20263;-83
2020/12/20 10:40:23;;;;;;;4.00;2.20;;;14.90;99.90;;;;;;5080391;28;20570;-84
2020/12/20 10:42:49;;;;;;;4.17;3.30;;;14.90;99.90;;;;;;5075560;28;20565;-84
2020/12/20 10:45:16;;;;;;;5.67;2.77;;;15.00;99.90;;;;;;5075458;28;20449;-83
2020/12/20 10:47:42;;;;;;;3.28;2.55;;;15.00;99.90;;;;;;5086633;28;20449;-83
2020/12/20 10:50:09;;;;;;;4.85;2.55;;;15.00;99.90;;;;;;5074391;28;20226;-81
2020/12/20 10:52:36;;;;;;;9.73;3.35;;;15.00;99.90;;;;;;5074612;28;20247;-81
2020/12/20 10:55:04;;;;;;;4.65;3.28;;;15.00;99.90;;;;;;5075702;28;20198;-81
2020/12/20 10:57:30;;;;;;;6.38;3.88;;;15.10;99.90;;;;;;5074961;28;20233;-82
2020/12/20 10:59:56;;;;;;;4.63;2.50;;;15.20;99.90;;;;;;5075882;28;20194;-81
2020/12/20 11:02:23;;;;;;;3.20;2.60;;;14.90;99.90;;;;;;5075755;28;20194;-82
2020/12/20 11:04:49;;;;;;;4.60;2.40;;;14.70;99.90;;;;;;5075458;28;20202;-82
2020/12/20 11:07:16;;;;;;;6.78;3.10;;;14.80;99.90;;;;;;5075303;28;20502;-82
2020/12/20 11:09:43;;;;;;;10.38;2.30;;;15.00;99.90;;;;;;5075517;28;20240;-82
2020/12/20 11:12:09;;;;;;;5.25;3.20;;;15.00;99.90;;;;;;5075431;28;20194;-81
2020/12/20 11:14:36;;;;;;;6.50;3.30;;;14.80;99.90;;;;;;5075304;28;20206;-82
2020/12/20 11:17:02;;;;;;;8.07;2.45;;;14.90;99.90;;;;;;5075243;28;20441;-81
2020/12/20 11:19:29;;;;;;;10.15;4.00;;;14.80;99.90;;;;;;5075330;28;20268;-81
2020/12/20 11:21:56;;;;;;;3.35;2.80;;;14.80;99.90;;;;;;5075124;28;20199;-81
2020/12/20 11:24:23;;;;;;;4.63;2.33;;;14.90;99.90;;;;;;5075417;28;20198;-81
2020/12/20 11:26:51;;;;;;;6.68;2.53;;;15.00;99.90;;;;;;5074990;28;20898;-81
2020/12/20 11:29:19;;;;;;;3.58;2.60;;;15.00;99.90;;;;;;5075242;28;20194;-81
2020/12/20 11:31:45;;;;;;;2.88;2.63;;;15.00;99.90;;;;;;5075099;28;20671;-81
2020/12/20 11:34:12;;;;;;;7.20;2.60;;;15.00;99.90;;;;;;5075105;28;20198;-81
2020/12/20 11:36:40;;;;;;;4.33;2.30;;;15.00;99.90;;;;;;5074669;28;20255;-81
2020/12/20 11:39:08;;;;;;;6.67;2.97;;;15.00;99.90;;;;;;5074564;28;20475;-81
2020/12/20 11:41:35;;;;;;;7.10;2.73;;;14.90;99.90;;;;;;5074842;28;20440;-81
2020/12/20 11:44:02;;;;;;;4.80;2.53;;;14.90;99.90;;;;;;5074828;28;20511;-81
2020/12/20 11:46:28;;;;;;;3.45;2.83;;;14.90;99.90;;;;;;5074750;28;20247;-81
2020/12/20 11:48:55;;;;;;;7.77;2.70;;;15.00;99.90;;;;;;5074597;28;20205;-81
2020/12/20 11:51:24;;;;;;;6.43;3.10;;;15.00;99.90;;;;;;5074520;28;20491;-81
2020/12/20 11:53:50;;;;;;;5.30;2.72;;;15.10;99.90;;;;;;5074603;28;20446;-81
2020/12/20 11:56:17;;;;;;;4.45;2.70;;;15.20;99.90;;;;;;5074272;28;20237;-81
2020/12/20 11:58:43;;;;;;;6.60;2.87;;;15.20;99.90;;;;;;5074543;28;20722;-81
2020/12/20 12:01:11;;;;;;;5.07;2.97;;;15.10;99.90;;;;;;5074469;28;20445;-81
2020/12/20 12:03:37;;;;;;;5.60;2.92;;;15.10;99.90;;;;;;5074200;28;20469;-81
2020/12/20 12:06:06;;;;;;;6.10;2.90;;;15.20;99.90;;;;;;5074570;28;20194;-81
2020/12/20 12:08:32;;;;;;;6.30;2.60;;;15.20;99.90;;;;;;5074179;28;20460;-81
2020/12/20 12:10:58;;;;;;;6.00;2.53;;;15.20;99.90;;;;;;5074228;28;20484;-81
2020/12/20 12:13:24;;;;;;;5.60;2.60;;;15.30;99.90;;;;;;5074246;28;20445;-81
2020/12/20 12:15:50;;;;;;;4.87;3.03;;;15.30;99.90;;;;;;5074185;28;20930;-81
2020/12/20 12:18:18;;;;;;;6.30;2.83;;;15.10;99.90;;;;;;5074147;28;20433;-81
2020/12/20 12:20:44;;;;;;;5.15;2.45;;;15.20;99.90;;;;;;5074059;28;20190;-81
2020/12/20 12:23:10;;;;;;;7.10;2.95;;;15.30;99.90;;;;;;5073624;28;20191;-81
2020/12/20 12:25:36;;;;;;;6.00;3.10;;;15.50;99.90;;;;;;5073782;28;20194;-81
2020/12/20 12:28:03;;;;;;;5.35;3.13;;;15.50;99.90;;;;;;5074076;28;20553;-81
2020/12/20 12:30:29;;;;;;;9.60;3.00;;;15.50;99.90;;;;;;5073847;28;20222;-81
2020/12/20 12:32:55;;;;;;;4.80;2.33;;;15.30;99.90;;;;;;5073734;28;20453;-81
2020/12/20 12:35:24;;;;;;;6.13;2.50;;;15.10;99.90;;;;;;5073949;28;20444;-81
2020/12/20 12:37:51;;;;;;;5.27;1.90;;;15.10;99.90;;;;;;5073588;28;20552;-81
2020/12/20 12:40:18;;;;;;;7.20;2.33;;;15.00;99.90;;;;;;5073839;28;20794;-81
2020/12/20 12:42:44;;;;;;;4.93;2.23;;;15.00;99.90;;;;;;5073659;28;20518;-81
2020/12/20 12:45:12;;;;;;;6.50;2.77;;;15.20;99.90;;;;;;5073552;28;20445;-81
2020/12/20 12:47:38;;;;;;;8.63;2.58;;;15.20;99.90;;;;;;5073544;28;20444;-81